Time;durP1;ratioP1;P1;durP2;ratioP2;P2;SDS_P1;SDS_P2;PMS_P1;PMS_P2;Temp;Humidity;BMP_temperature;BMP_pressure;BME280_temperature;BME280_humidity;BME280_pressure;Samples;Min_cycle;Max_cycle;Signal;HPM_P1;HPM_P2
2021/07/23 05:31:02;;;;;;;83.67;77.60;;;;;;;20.46;68.52;100476.17;1755895;77;26894;-64
2021/07/23 05:33:29;;;;;;;82.10;76.60;;;;;;;20.55;68.21;100473.17;1779206;79;25864;-64
2021/07/23 05:35:57;;;;;;;80.57;75.00;;;;;;;20.65;68.04;100471.74;1779380;80;25689;-64
2021/07/23 05:38:24;;;;;;;83.58;77.97;;;;;;;20.72;67.65;100474.58;1773683;80;27327;-64
2021/07/23 05:40:50;;;;;;;79.40;73.85;;;;;;;20.77;67.56;100474.27;1758620;81;25759;-65
2021/07/23 05:43:17;;;;;;;81.37;75.47;;;;;;;20.83;67.38;100471.38;1757035;81;26439;-64
2021/07/23 05:45:43;;;;;;;82.57;76.72;;;;;;;20.90;67.29;100474.21;1751773;80;25703;-64
2021/07/23 05:48:10;;;;;;;81.17;76.02;;;;;;;20.97;67.25;100477.63;1755195;81;25695;-64
2021/07/23 05:50:36;;;;;;;78.15;72.95;;;;;;;21.04;67.08;100475.55;1763489;81;27433;-64
2021/07/23 05:53:03;;;;;;;79.85;74.62;;;;;;;21.08;66.96;100468.92;1748209;81;25631;-64
2021/07/23 05:55:29;;;;;;;80.38;75.15;;;;;;;21.15;66.85;100470.19;1748561;81;25747;-64
2021/07/23 05:57:57;;;;;;;77.62;72.55;;;;;;;21.19;66.58;100467.66;1748477;81;26040;-64
2021/07/23 06:00:28;;;;;;;81.45;75.85;;;;;;;21.26;66.53;100474.59;1748333;82;25706;-64
2021/07/23 06:02:55;;;;;;;80.83;75.40;;;;;;;21.32;66.51;100466.00;1748586;82;27399;-64
2021/07/23 06:05:23;;;;;;;82.72;76.67;;;;;;;21.39;66.38;100468.84;1721088;82;25717;-64
2021/07/23 06:07:49;;;;;;;82.37;76.12;;;;;;;21.49;66.34;100471.50;1747171;82;25719;-65
2021/07/23 06:10:16;;;;;;;81.57;75.80;;;;;;;21.57;65.86;100472.59;1746816;81;26022;-65
2021/07/23 06:12:42;;;;;;;79.87;74.67;;;;;;;21.60;65.47;100470.44;1746969;82;25644;-65
2021/07/23 06:15:10;;;;;;;82.62;76.47;;;;;;;21.70;65.38;100468.17;1746634;81;27478;-65
2021/07/23 06:17:36;;;;;;;78.83;73.37;;;;;;;21.79;65.28;100468.06;1746934;82;26103;-65
2021/07/23 06:20:05;;;;;;;82.70;76.57;;;;;;;21.86;64.80;100469.27;1746804;81;25728;-65
2021/07/23 06:22:31;;;;;;;80.15;74.53;;;;;;;21.94;64.58;100466.78;1746943;82;26370;-65
2021/07/23 06:24:58;;;;;;;80.62;74.77;;;;;;;22.00;64.47;100461.91;1747057;82;25813;-65
2021/07/23 06:27:26;;;;;;;81.37;75.85;;;;;;;22.11;64.35;100459.81;1746889;81;28230;-64
2021/07/23 06:29:53;;;;;;;82.75;76.82;;;;;;;22.26;64.52;100464.83;1746691;81;26064;-64
2021/07/23 06:32:20;;;;;;;82.78;76.92;;;;;;;22.36;63.86;100459.41;1746598;82;25650;-64
2021/07/23 06:34:48;;;;;;;81.15;75.92;;;;;;;22.47;63.49;100462.20;1715137;83;27492;-65
2021/07/23 06:37:20;;;;;;;79.62;74.32;;;;;;;22.59;62.95;100463.05;1718251;82;25722;-65
2021/07/23 06:39:45;;;;;;;78.65;73.33;;;;;;;22.71;62.79;100469.03;1718485;82;28961;-64
2021/07/23 06:42:12;;;;;;;79.10;73.60;;;;;;;22.83;61.58;100467.09;1688024;84;25759;-65
2021/07/23 06:44:38;;;;;;;81.55;75.85;;;;;;;22.84;61.50;100465.33;1718193;83;25763;-65
2021/07/23 06:47:04;;;;;;;77.50;72.40;;;;;;;22.94;61.22;100465.17;1688058;84;25820;-65
2021/07/23 06:49:31;;;;;;;88.15;82.47;;;;;;;23.06;60.98;100468.19;1718203;83;25932;-65
2021/07/23 06:51:57;;;;;;;80.35;75.25;;;;;;;23.13;60.77;100471.73;1687866;85;28144;-65
2021/07/23 06:54:24;;;;;;;76.42;71.60;;;;;;;23.29;60.61;100470.59;1718354;83;25819;-65
2021/07/23 06:56:53;;;;;;;77.47;72.67;;;;;;;23.44;60.00;100468.64;1666312;85;25785;-65
2021/07/23 06:59:20;;;;;;;80.62;75.67;;;;;;;23.58;59.75;100467.86;1718255;83;25944;-65
2021/07/23 07:01:48;;;;;;;76.62;72.00;;;;;;;23.68;59.58;100467.08;1685938;85;25746;-65
2021/07/23 07:04:14;;;;;;;77.65;72.58;;;;;;;23.82;59.66;100467.12;1718605;83;27334;-65
2021/07/23 07:06:42;;;;;;;83.42;78.25;;;;;;;24.01;59.26;100470.66;1718232;83;25963;-75
2021/07/23 07:09:08;;;;;;;76.95;71.72;;;;;;;24.18;58.39;100475.96;1700586;83;25963;-75
2021/07/23 07:11:34;;;;;;;87.95;81.30;;;;;;;24.31;58.15;100463.27;1744263;82;25708;-75
2021/07/23 07:14:00;;;;;;;63.30;58.78;;;;;;;24.48;57.96;100458.88;1752720;81;25752;-75
2021/07/23 07:16:27;;;;;;;11.33;8.30;;;;;;;24.61;57.19;100465.58;1731600;81;27554;-75
2021/07/23 07:18:53;;;;;;;15.40;8.48;;;;;;;24.74;57.04;100464.55;1752566;79;25819;-74
2021/07/23 07:21:19;;;;;;;10.50;8.18;;;;;;;24.83;56.39;100461.34;1752587;81;25767;-74
2021/07/23 07:23:46;;;;;;;13.05;8.20;;;;;;;24.93;56.35;100468.80;1752812;81;25699;-74
2021/07/23 07:26:12;;;;;;;12.00;7.95;;;;;;;25.05;56.38;100466.17;1752733;79;25707;-73
2021/07/23 07:28:39;;;;;;;12.50;7.58;;;;;;;25.25;56.03;100469.80;1752921;81;27473;-75
2021/07/23 07:31:05;;;;;;;15.25;8.08;;;;;;;25.49;55.83;100463.95;1753884;80;25756;-75
2021/07/23 07:33:32;;;;;;;15.50;8.45;;;;;;;25.64;54.74;100471.52;1753653;81;25707;-75
2021/07/23 07:35:58;;;;;;;12.28;7.78;;;;;;;25.75;54.17;100472.84;1753590;81;26390;-75
2021/07/23 07:38:25;;;;;;;16.67;8.73;;;;;;;25.83;52.96;100470.98;1753432;81;26039;-75
2021/07/23 07:40:51;;;;;;;13.25;8.03;;;;;;;25.86;52.22;100470.75;1753587;81;27465;-75
2021/07/23 07:43:18;;;;;;;10.08;7.40;;;;;;;25.88;52.23;100469.73;1753570;81;25679;-75
2021/07/23 07:45:44;;;;;;;14.10;8.98;;;;;;;26.07;52.16;100465.05;1753411;81;25763;-75
2021/07/23 07:48:10;;;;;;;11.35;6.85;;;;;;;26.34;51.86;100460.22;1753484;81;25800;-75
2021/07/23 07:50:36;;;;;;;12.60;7.83;;;;;;;26.48;51.55;100463.42;1753616;81;25501;-75
2021/07/23 07:53:09;;;;;;;9.40;7.35;;;;;;;26.72;51.58;100456.63;1753445;81;27325;-75
2021/07/23 07:55:35;;;;;;;12.65;8.10;;;;;;;26.98;50.82;100451.70;1753549;81;25715;-75
2021/07/23 07:58:01;;;;;;;13.50;7.90;;;;;;;27.35;50.54;100450.00;1753873;81;25652;-75
2021/07/23 08:00:28;;;;;;;13.65;8.33;;;;;;;27.73;50.31;100448.98;1753361;81;25648;-75
2021/07/23 08:02:54;;;;;;;9.25;8.03;;;;;;;28.12;49.66;100451.08;1753725;81;25700;-75
2021/07/23 08:05:20;;;;;;;12.47;7.72;;;;;;;28.41;48.59;100454.70;1753711;81;27349;-75
2021/07/23 08:07:48;;;;;;;15.95;8.43;;;;;;;28.61;46.91;100458.13;1753478;81;27172;-75
2021/07/23 08:10:16;;;;;;;10.40;7.87;;;;;;;28.66;45.28;100453.45;1753660;81;25788;-75
2021/07/23 08:12:43;;;;;;;10.80;8.28;;;;;;;28.43;45.39;100455.05;1753674;81;25675;-75
2021/07/23 08:15:11;;;;;;;10.13;7.37;;;;;;;28.56;45.65;100451.05;1753438;81;25715;-75
2021/07/23 08:17:37;;;;;;;10.25;6.83;;;;;;;28.77;44.62;100454.60;1753871;81;27341;-75
2021/07/23 08:20:06;;;;;;;12.93;8.55;;;;;;;28.67;44.08;100450.83;1753532;81;25847;-76
2021/07/23 08:22:34;;;;;;;12.60;7.70;;;;;;;28.59;43.99;100454.37;1753574;81;25823;-76
2021/07/23 08:25:00;;;;;;;13.58;7.65;;;;;;;28.38;43.82;100459.72;1753695;81;25771;-76
2021/07/23 08:27:28;;;;;;;13.70;8.53;;;;;;;28.06;43.37;100458.95;1753721;81;25710;-75
2021/07/23 08:29:55;;;;;;;12.93;8.70;;;;;;;27.88;44.05;100462.03;1753115;81;27520;-76
2021/07/23 08:32:22;;;;;;;13.03;8.33;;;;;;;28.10;44.59;100458.30;1753142;81;25681;-75
2021/07/23 08:34:57;;;;;;;10.15;8.50;;;;;;;28.09;44.10;100455.32;1752958;81;25683;-75
2021/07/23 08:37:27;;;;;;;11.28;8.03;;;;;;;27.87;43.16;100459.88;1752661;81;26246;-76
2021/07/23 08:39:55;;;;;;;11.85;7.08;;;;;;;27.59;43.13;100458.35;1752865;81;25751;-76
2021/07/23 08:42:33;;;;;;;9.95;7.47;;;;;;;27.43;43.58;100453.46;1753094;81;29456;-74
2021/07/23 08:45:04;;;;;;;10.08;7.53;;;;;;;27.36;43.66;100448.80;1752933;81;30203;-75
2021/07/23 08:47:30;;;;;;;9.68;6.67;;;;;;;27.06;43.10;100445.45;1752970;81;25661;-79
2021/07/23 08:49:58;;;;;;;33.65;31.20;;;;;;;26.95;43.98;100443.42;1752824;81;25932;-70
2021/07/23 08:52:50;;;;;;;12.63;6.70;;;;;;;27.03;44.25;100445.67;1752906;81;25830;-69
2021/07/23 08:55:19;;;;;;;10.90;6.70;;;;;;;27.12;43.95;100438.81;1752877;81;27342;-71
2021/07/23 08:57:47;;;;;;;15.28;6.35;;;;;;;27.33;44.21;100435.75;1751880;80;27280;-70
2021/07/23 09:00:20;;;;;;;9.43;5.87;;;;;;;27.68;44.80;100437.75;1753059;81;25727;-70
2021/07/23 09:03:03;;;;;;;9.23;6.15;;;;;;;28.08;43.70;100437.09;1752916;81;25876;-70
2021/07/23 09:05:36;;;;;;;13.60;6.65;;;;;;;28.54;42.07;100437.35;1752683;81;25754;-73
2021/07/23 09:08:12;;;;;;;11.33;6.35;;;;;;;28.85;41.86;100435.92;1752905;81;27279;-72
2021/07/23 09:10:39;;;;;;;10.50;6.53;;;;;;;29.13;42.31;100432.30;1752411;81;25820;-78
2021/07/23 09:13:07;;;;;;;8.33;5.55;;;;;;;29.50;40.92;100433.04;1752686;81;25785;-85
2021/07/23 09:15:42;;;;;;;9.93;7.28;;;;;;;29.54;39.54;100430.97;1752980;81;25786;-83
2021/07/23 09:18:35;;;;;;;10.68;6.28;;;;;;;29.37;39.58;100438.55;1753080;81;25983;-83
2021/07/23 09:21:00;;;;;;;12.63;6.90;;;;;;;29.29;39.80;100433.58;1751347;80;29461;-78
2021/07/23 09:23:35;;;;;;;9.53;6.62;;;;;;;29.47;38.88;100438.08;1752892;81;25739;-78
2021/07/23 09:26:12;;;;;;;8.50;6.53;;;;;;;29.40;38.95;100436.26;1752824;81;25799;-79
2021/07/23 09:28:44;;;;;;;6.62;5.20;;;;;;;29.33;38.71;100430.87;1752595;81;25711;-78
2021/07/23 09:31:24;;;;;;;9.23;6.35;;;;;;;29.44;38.17;100432.02;1752940;81;25715;-82
2021/07/23 09:33:58;;;;;;;10.45;6.28;;;;;;;29.47;37.42;100438.70;1750674;80;27454;-84
2021/07/23 09:36:27;;;;;;;70.87;66.00;;;;;;;29.53;37.44;100423.04;1750458;81;25684;-76
2021/07/23 09:39:01;;;;;;;70.87;66.50;;;;;;;29.57;36.98;100430.06;1750798;81;25761;-84
2021/07/23 09:41:28;;;;;;;66.15;62.45;;;;;;;29.71;36.77;100423.37;1750740;81;25650;-80
2021/07/23 09:44:08;;;;;;;71.72;67.70;;;;;;;29.97;36.71;100426.30;1750561;81;25778;-82
2021/07/23 09:46:44;;;;;;;69.03;65.15;;;;;;;30.47;37.88;100427.70;1741418;81;27371;-78
2021/07/23 09:49:28;;;;;;;66.25;62.55;;;;;;;31.16;37.18;100420.05;1718716;83;25687;-78
2021/07/23 09:51:59;;;;;;;65.37;61.48;;;;;;;31.58;36.14;100422.08;1716922;83;25791;-77
2021/07/23 09:54:25;;;;;;;67.10;62.90;;;;;;;31.47;34.60;100414.03;1716828;83;26032;-72
2021/07/23 09:56:51;;;;;;;73.15;68.80;;;;;;;31.44;34.57;100408.56;1716784;83;25677;-76
2021/07/23 10:00:06;;;;;;;67.70;63.68;;;;;;;31.64;34.89;100409.09;1716873;83;27335;-76
2021/07/23 10:02:37;;;;;;;65.17;61.48;;;;;;;31.74;33.52;100412.77;1716615;83;25720;-76
2021/07/23 10:05:10;;;;;;;8.65;6.53;;;;;;;31.81;33.61;100408.94;1716784;83;25662;-76
2021/07/23 10:07:47;;;;;;;8.15;6.03;;;;;;;31.93;32.45;100422.70;1716955;83;25695;-76
2021/07/23 10:10:15;;;;;;;17.73;12.58;;;;;;;31.46;32.31;100414.48;1716945;83;25326;-74
2021/07/23 10:12:44;;;;;;;65.00;61.00;;;;;;;31.51;33.29;100404.78;1716956;83;27391;-74
2021/07/23 10:15:13;;;;;;;66.53;62.35;;;;;;;31.97;33.13;100398.18;1716467;83;25773;-73
2021/07/23 10:17:40;;;;;;;67.08;63.13;;;;;;;32.17;31.90;100393.69;1717054;83;25786;-74
2021/07/23 10:20:09;;;;;;;65.37;61.83;;;;;;;31.96;31.99;100393.81;1716860;83;25772;-77
2021/07/23 10:22:37;;;;;;;64.45;60.75;;;;;;;31.69;31.99;100393.77;1717017;83;25735;-77
2021/07/23 10:25:05;;;;;;;64.90;61.23;;;;;;;31.67;32.51;100390.66;1716925;83;27322;-77
2021/07/23 10:27:32;;;;;;;65.45;61.53;;;;;;;31.78;32.76;100391.04;1704233;81;34867;-77
2021/07/23 10:29:59;;;;;;;64.60;60.75;;;;;;;31.65;32.61;100384.71;1744410;81;25717;-77
2021/07/23 10:32:35;;;;;;;64.00;60.23;;;;;;;31.50;32.68;100387.80;1744869;81;25755;-78
2021/07/23 10:35:28;;;;;;;67.32;63.52;;;;;;;31.36;32.93;100381.47;1714447;83;25652;-79
2021/07/23 10:37:57;;;;;;;66.25;62.38;;;;;;;31.18;32.97;100382.08;1684426;85;27403;-79
2021/07/23 10:40:38;;;;;;;65.72;62.05;;;;;;;30.91;33.07;100378.34;1714690;83;25781;-72
2021/07/23 10:43:32;;;;;;;65.17;61.15;;;;;;;30.71;33.38;100391.12;1683591;85;25714;-72
2021/07/23 10:45:58;;;;;;;65.42;61.58;;;;;;;30.47;33.52;100380.27;1714394;83;25710;-75
2021/07/23 10:48:46;;;;;;;67.92;64.12;;;;;;;30.25;33.85;100386.28;1684398;85;25846;-79
2021/07/23 10:51:51;;;;;;;34.40;31.82;;;;;;;29.98;33.76;100384.63;1714146;83;27403;-79
2021/07/23 10:54:20;;;;;;;12.95;7.80;;;;;;;29.67;34.20;100392.63;1714487;83;25713;-80
2021/07/23 10:57:00;;;;;;;11.43;7.05;;;;;;;29.09;34.54;100387.06;1684857;85;25679;-79
2021/07/23 10:59:51;;;;;;;12.90;7.50;;;;;;;28.64;35.46;100382.12;1701363;83;25827;-76
2021/07/23 11:02:23;;;;;;;11.55;7.08;;;;;;;28.33;36.05;100379.56;1713627;83;25836;-76
2021/07/23 11:04:54;;;;;;;12.03;7.53;;;;;;;28.12;36.88;100384.36;1699117;83;29956;-77
2021/07/23 11:07:26;;;;;;;11.57;8.35;;;;;;;27.95;37.07;100382.10;1713160;83;25818;-83
2021/07/23 11:09:52;;;;;;;12.18;8.20;;;;;;;27.72;37.47;100382.11;1684101;83;26369;-81
2021/07/23 11:12:31;;;;;;;15.55;7.53;;;;;;;27.49;37.83;100378.16;1710852;83;25389;-83
2021/07/23 11:15:00;;;;;;;13.00;7.33;;;;;;;27.27;38.24;100373.53;1708683;84;25735;-75
2021/07/23 11:17:31;;;;;;;13.68;7.65;;;;;;;27.03;38.41;100372.12;1707789;84;27558;-77
2021/07/23 11:20:01;;;;;;;11.60;8.40;;;;;;;26.87;38.88;100370.60;1706835;84;25794;-79
2021/07/23 11:22:32;;;;;;;23.07;11.83;;;;;;;26.86;39.42;100366.86;1707264;84;25799;-79
2021/07/23 11:25:09;;;;;;;13.38;7.90;;;;;;;26.80;39.81;100364.55;1685122;83;25752;-85
2021/07/23 11:27:42;;;;;;;14.85;8.58;;;;;;;26.86;40.10;100366.86;1707348;84;25695;-84
2021/07/23 11:30:21;;;;;;;13.45;8.10;;;;;;;26.74;39.81;100372.37;1707464;83;29442;-81
2021/07/23 11:32:58;;;;;;;13.70;8.35;;;;;;;26.60;40.04;100363.02;1707365;83;25718;-77
2021/07/23 11:35:31;;;;;;;72.85;68.15;;;;;;;26.52;40.41;100364.92;1718350;83;25731;-82
2021/07/23 11:38:01;;;;;;;73.15;68.33;;;;;;;26.40;41.08;100355.17;1718480;83;25696;-80
2021/07/23 11:40:28;;;;;;;76.55;71.62;;;;;;;26.36;41.30;100349.67;1718192;83;25747;-83
2021/07/23 11:42:56;;;;;;;73.00;68.20;;;;;;;26.35;41.39;100355.02;1718328;83;27384;-81
2021/07/23 11:45:34;;;;;;;73.02;68.47;;;;;;;26.37;41.53;100356.77;1718440;83;26217;-81
2021/07/23 11:48:20;;;;;;;43.10;39.95;;;;;;;26.43;41.69;100357.12;1716867;83;25715;-85
2021/07/23 11:50:55;;;;;;;15.83;8.05;;;;;;;26.50;41.73;100360.40;1718272;83;25702;-82
2021/07/23 11:53:24;;;;;;;13.98;9.18;;;;;;;26.63;41.94;100359.45;1718495;83;25730;-82
2021/07/23 11:55:51;;;;;;;16.70;11.30;;;;;;;26.77;41.87;100355.67;1718459;83;28443;-88
2021/07/23 11:58:24;;;;;;;73.60;69.07;;;;;;;26.87;41.74;100356.73;1718323;83;26055;-84
2021/07/23 12:00:50;;;;;;;73.87;68.90;;;;;;;26.94;41.47;100348.91;1718389;83;25683;-75
2021/07/23 12:03:21;;;;;;;73.42;68.60;;;;;;;27.03;41.29;100347.75;1718022;83;25704;-81
2021/07/23 12:05:48;;;;;;;73.15;68.47;;;;;;;27.01;41.44;100346.01;1722492;83;25750;-73
2021/07/23 12:08:16;;;;;;;14.23;8.45;;;;;;;27.07;41.79;100356.80;1722687;83;27306;-76
2021/07/23 12:10:44;;;;;;;14.93;9.18;;;;;;;27.03;41.36;100354.08;1722336;83;25827;-74
2021/07/23 12:13:13;;;;;;;13.38;8.53;;;;;;;26.99;41.13;100356.75;1692251;84;26108;-78
2021/07/23 12:15:54;;;;;;;;;;;;;;;26.89;41.33;100354.31;1694802;84;25859;-78
2021/07/23 12:18:23;;;;;;;15.38;8.50;;;;;;;26.84;41.49;100361.73;1722593;83;25724;-78
2021/07/23 12:20:50;;;;;;;12.58;8.38;;;;;;;26.74;41.56;100356.51;1722688;83;27388;-78
2021/07/23 12:23:27;;;;;;;11.33;8.03;;;;;;;26.62;41.62;100354.28;1722677;83;25706;-77
2021/07/23 12:25:56;;;;;;;73.80;69.12;;;;;;;26.52;41.96;100356.60;1691997;84;25678;-79
2021/07/23 12:28:23;;;;;;;75.08;70.10;;;;;;;26.41;42.47;100357.53;1664175;84;26445;-76
2021/07/23 12:30:50;;;;;;;73.33;68.60;;;;;;;26.34;42.87;100356.83;1722652;83;26326;-78
2021/07/23 12:33:30;;;;;;;72.32;67.78;;;;;;;26.29;43.06;100352.55;1691782;84;27343;-74
2021/07/23 12:36:01;;;;;;;75.85;70.85;;;;;;;26.22;43.18;100361.73;1720053;83;25789;-78
2021/07/23 12:38:33;;;;;;;73.22;68.40;;;;;;;26.12;43.50;100356.30;1689574;84;25669;-80
2021/07/23 12:41:04;;;;;;;74.42;69.50;;;;;;;25.98;43.25;100362.19;1688291;84;25760;-85
2021/07/23 12:43:29;;;;;;;12.23;7.90;;;;;;;25.89;43.79;100361.88;1718913;83;25709;-80
2021/07/23 12:45:57;;;;;;;12.45;7.78;;;;;;;25.81;44.02;100363.15;1720192;83;27316;-80
2021/07/23 12:48:24;;;;;;;26.15;8.83;;;;;;;25.71;44.16;100363.44;1689569;84;26057;-79
2021/07/23 12:51:03;;;;;;;13.22;8.58;;;;;;;25.61;44.33;100362.37;1720164;83;25707;-75
2021/07/23 12:53:30;;;;;;;16.97;8.78;;;;;;;25.52;44.48;100357.89;1689695;84;25840;-78
2021/07/23 12:56:04;;;;;;;12.35;8.78;;;;;;;25.52;44.62;100372.55;1719864;83;25790;-74
2021/07/23 12:58:46;;;;;;;15.08;8.55;;;;;;;25.31;44.56;100358.87;1689638;84;28015;-75
2021/07/23 13:01:15;;;;;;;14.60;8.60;;;;;;;25.15;44.73;100358.00;1719803;83;26129;-80
2021/07/23 13:03:42;;;;;;;14.43;7.80;;;;;;;25.02;44.85;100359.07;1689501;84;25788;-82
2021/07/23 13:06:12;;;;;;;10.98;7.87;;;;;;;24.94;45.26;100356.16;1719714;83;25985;-84
2021/07/23 13:08:39;;;;;;;;;;;;;;;24.86;45.23;100351.86;1692102;84;25700;-81
2021/07/23 13:11:09;;;;;;;10.58;8.18;;;;;;;24.78;45.62;100356.06;1719725;83;27581;-83
2021/07/23 13:13:37;;;;;;;13.13;7.97;;;;;;;24.72;45.88;100358.27;1668281;84;25929;-75
2021/07/23 13:16:05;;;;;;;10.00;7.83;;;;;;;24.66;45.77;100355.16;1689809;84;25729;-76
2021/07/23 13:18:32;;;;;;;12.53;7.95;;;;;;;24.60;45.91;100354.80;1697580;83;25810;-78
2021/07/23 13:20:58;;;;;;;15.63;8.23;;;;;;;24.58;46.08;100355.00;1690286;84;25822;-74
2021/07/23 13:23:27;;;;;;;18.20;8.90;;;;;;;24.57;46.20;100355.60;1720255;83;27325;-73
2021/07/23 13:25:54;;;;;;;26.27;8.83;;;;;;;24.54;46.45;100353.64;1690228;84;26178;-76
2021/07/23 13:28:21;;;;;;;20.62;9.20;;;;;;;24.56;46.94;100354.02;1716546;83;25719;-81
2021/07/23 13:30:49;;;;;;;13.50;8.98;;;;;;;24.57;47.17;100352.06;1714869;83;25730;-78
2021/07/23 13:33:16;;;;;;;;;;;;;;;24.58;47.11;100349.47;1722429;83;26150;-82
2021/07/23 13:35:45;;;;;;;15.95;8.40;;;;;;;24.58;47.48;100348.09;1722880;81;28275;-74
2021/07/23 13:38:18;;;;;;;15.88;8.40;;;;;;;24.59;47.44;100344.92;1660591;84;25780;-74
2021/07/23 13:40:49;;;;;;;14.55;8.15;;;;;;;24.64;47.81;100339.56;1722898;83;26354;-73
2021/07/23 13:43:17;;;;;;;13.78;7.75;;;;;;;24.69;47.76;100341.91;1723155;83;25804;-74
2021/07/23 13:45:44;;;;;;;12.80;7.47;;;;;;;24.76;48.05;100341.86;1685996;83;25717;-75
2021/07/23 13:48:10;;;;;;;13.90;7.60;;;;;;;24.86;48.31;100340.80;1722746;81;27321;-72
2021/07/23 13:50:37;;;;;;;15.55;8.25;;;;;;;24.94;48.42;100338.98;1723055;83;25731;-77
2021/07/23 13:53:04;;;;;;;16.10;7.70;;;;;;;25.05;48.35;100331.20;1723134;81;25671;-79
2021/07/23 13:55:32;;;;;;;13.68;7.92;;;;;;;25.13;48.19;100334.88;1685524;84;25744;-76
2021/07/23 13:57:58;;;;;;;11.83;8.13;;;;;;;25.23;48.31;100335.97;1723331;83;25833;-76
2021/07/23 14:00:26;;;;;;;18.02;7.87;;;;;;;25.35;48.44;100339.66;1685951;83;27338;-76
2021/07/23 14:02:52;;;;;;;14.70;8.13;;;;;;;25.45;48.04;100332.44;1722298;83;25875;-72
2021/07/23 14:05:19;;;;;;;13.88;7.80;;;;;;;25.54;47.48;100336.91;1685600;84;26203;-76
2021/07/23 14:07:48;;;;;;;12.58;8.20;;;;;;;25.64;47.61;100337.20;1723112;83;25659;-74
2021/07/23 14:10:14;;;;;;;24.57;13.07;;;;;;;25.76;47.16;100337.28;1722385;83;26359;-74
2021/07/23 14:12:40;;;;;;;26.02;11.28;;;;;;;25.80;47.12;100339.44;1683912;84;27790;-74
2021/07/23 14:15:08;;;;;;;14.85;8.80;;;;;;;25.87;46.94;100342.13;1721891;83;25808;-73
2021/07/23 14:17:37;;;;;;;12.03;8.58;;;;;;;25.97;46.92;100337.70;1723459;83;25740;-73
2021/07/23 14:20:07;;;;;;;18.23;8.50;;;;;;;26.08;46.86;100334.98;1723065;83;25699;-74
2021/07/23 14:22:34;;;;;;;74.27;69.58;;;;;;;26.18;46.90;100336.64;1686133;84;25772;-77
2021/07/23 14:25:01;;;;;;;73.50;69.20;;;;;;;26.27;46.82;100334.13;1723013;83;27392;-76
2021/07/23 14:27:27;;;;;;;17.25;14.55;;;;;;;26.36;46.58;100336.42;1685504;84;25716;-79
2021/07/23 14:29:53;;;;;;;13.05;8.40;;;;;;;26.49;46.56;100333.86;1707562;84;25833;-78
2021/07/23 14:32:20;;;;;;;13.00;8.73;;;;;;;26.61;46.19;100335.48;1707601;82;25681;-78
2021/07/23 14:34:49;;;;;;;17.40;8.18;;;;;;;26.70;45.74;100329.44;1686374;83;25757;-77
2021/07/23 14:37:15;;;;;;;13.15;8.80;;;;;;;26.79;45.54;100326.91;1687249;83;27422;-78
2021/07/23 14:39:42;;;;;;;10.85;7.30;;;;;;;26.90;45.35;100328.73;1663922;84;25728;-78
2021/07/23 14:42:09;;;;;;;10.28;8.10;;;;;;;26.97;44.81;100325.25;1717067;83;25791;-78
2021/07/23 14:44:35;;;;;;;11.75;7.55;;;;;;;27.06;44.72;100326.09;1667747;84;25768;-76
2021/07/23 14:47:03;;;;;;;71.87;67.53;;;;;;;27.14;44.23;100323.97;1710180;83;25716;-76
2021/07/23 14:49:31;;;;;;;72.00;67.42;;;;;;;27.18;43.39;100321.33;1716907;83;27313;-75
2021/07/23 14:51:58;;;;;;;50.07;46.90;;;;;;;27.27;43.60;100318.00;1691819;84;25771;-80
2021/07/23 14:54:24;;;;;;;32.10;19.80;;;;;;;27.40;43.84;100323.77;1717070;83;25722;-81
2021/07/23 14:56:51;;;;;;;23.30;21.12;;;;;;;27.48;43.59;100318.86;1691590;84;25704;-79
2021/07/23 14:59:18;;;;;;;51.25;48.00;;;;;;;27.58;43.13;100322.05;1717139;83;25648;-75
2021/07/23 15:01:44;;;;;;;71.02;66.53;;;;;;;27.64;43.20;100318.97;1691576;84;27501;-76
2021/07/23 15:04:10;;;;;;;14.83;13.43;;;;;;;27.71;43.01;100305.55;1687310;83;26315;-76
2021/07/23 15:06:37;;;;;;;10.68;7.70;;;;;;;27.82;42.72;100313.08;1691798;84;26269;-77
2021/07/23 15:09:03;;;;;;;13.30;7.92;;;;;;;27.90;42.46;100310.92;1697420;84;25778;-79
2021/07/23 15:11:31;;;;;;;8.98;7.12;;;;;;;27.93;42.31;100318.44;1717268;83;25707;-76
2021/07/23 15:13:58;;;;;;;17.50;7.85;;;;;;;27.98;42.16;100310.22;1691775;84;27966;-77
2021/07/23 15:16:25;;;;;;;10.88;7.40;;;;;;;28.00;41.75;100312.73;1717198;83;26442;-75
2021/07/23 15:18:52;;;;;;;12.95;7.70;;;;;;;27.99;41.79;100308.37;1691517;84;26461;-77
2021/07/23 15:21:20;;;;;;;10.78;7.28;;;;;;;27.98;41.55;100305.43;1697478;84;26050;-76
2021/07/23 15:23:46;;;;;;;72.15;67.95;;;;;;;27.98;41.62;100305.43;1717341;83;25816;-76
2021/07/23 15:26:13;;;;;;;70.72;66.62;;;;;;;27.98;42.08;100305.43;1691733;84;27379;-76
2021/07/23 15:28:40;;;;;;;70.70;66.37;;;;;;;27.95;41.02;100304.89;1717171;83;25684;-78
2021/07/23 15:31:06;;;;;;;70.80;66.50;;;;;;;27.91;41.51;100306.33;1691836;84;25704;-79
2021/07/23 15:33:36;;;;;;;70.75;66.33;;;;;;;27.90;41.29;100300.58;1717449;83;25949;-80
2021/07/23 15:36:05;;;;;;;24.90;22.98;;;;;;;27.86;41.47;100303.27;1684912;84;25762;-75
2021/07/23 15:38:32;;;;;;;9.28;7.55;;;;;;;27.82;41.37;100301.95;1708623;84;27338;-76
2021/07/23 15:40:59;;;;;;;27.13;15.10;;;;;;;27.77;41.41;100295.52;1682183;85;25796;-78
2021/07/23 15:43:25;;;;;;;78.25;72.55;;;;;;;27.70;41.58;100290.88;1707784;84;25862;-76
2021/07/23 15:45:51;;;;;;;71.47;67.17;;;;;;;27.56;41.74;100290.52;1695688;84;25683;-82
2021/07/23 15:48:19;;;;;;;70.52;66.17;;;;;;;27.47;41.99;100289.53;1658438;86;25695;-80
2021/07/23 15:50:45;;;;;;;70.65;66.55;;;;;;;27.42;42.12;100286.63;1659884;86;27611;-79
2021/07/23 15:53:12;;;;;;;71.67;67.35;;;;;;;27.36;41.96;100285.55;1687446;85;27176;-79
2021/07/23 15:55:41;;;;;;;73.90;69.20;;;;;;;27.33;42.25;100283.03;1707500;83;25784;-78
2021/07/23 15:58:07;;;;;;;76.80;72.00;;;;;;;27.28;42.63;100278.55;1700788;83;25715;-72
2021/07/23 16:00:34;;;;;;;73.70;69.27;;;;;;;27.24;42.87;100281.36;1720235;83;26338;-73
2021/07/23 16:03:03;;;;;;;71.53;67.37;;;;;;;27.19;42.43;100279.88;1714503;83;29442;-73
2021/07/23 16:05:29;;;;;;;73.92;69.53;;;;;;;27.14;42.54;100278.17;1705742;83;25819;-73
2021/07/23 16:07:56;;;;;;;73.02;68.52;;;;;;;27.07;42.85;100276.30;1705949;83;25317;-75
2021/07/23 16:10:23;;;;;;;72.00;67.70;;;;;;;26.98;43.58;100275.46;1712877;81;25704;-77
2021/07/23 16:12:49;;;;;;;74.77;70.17;;;;;;;26.91;43.62;100274.20;1721542;82;25775;-77
2021/07/23 16:15:15;;;;;;;73.25;68.95;;;;;;;26.84;43.98;100276.48;1718802;83;27447;-73
2021/07/23 16:17:44;;;;;;;74.20;69.37;;;;;;;26.79;44.62;100274.19;1718590;83;26372;-71
2021/07/23 16:20:12;;;;;;;73.70;69.17;;;;;;;26.71;44.53;100270.56;1718694;83;25702;-75
2021/07/23 16:22:39;;;;;;;72.35;67.90;;;;;;;26.60;44.85;100272.10;1686134;85;25670;-72
2021/07/23 16:25:08;;;;;;;72.60;68.20;;;;;;;26.47;45.08;100271.88;1693928;84;25850;-73
2021/07/23 16:27:34;;;;;;;73.55;69.22;;;;;;;26.37;45.43;100263.12;1718977;83;32940;-72
2021/07/23 16:30:01;;;;;;;73.70;68.65;;;;;;;26.29;45.84;100265.22;1718646;83;25797;-73
2021/07/23 16:32:29;;;;;;;73.42;68.87;;;;;;;26.20;46.03;100264.33;1718716;83;26329;-72
2021/07/23 16:34:56;;;;;;;75.30;70.83;;;;;;;26.12;46.18;100260.69;1718634;83;25729;-74
2021/07/23 16:38:32;;;;;;;11.57;9.03;;;;;;;26.15;46.80;100265.40;1867032;76;25509;-72
2021/07/23 16:40:58;;;;;;;14.15;8.30;;;;;;;26.02;46.64;100252.11;1750979;81;25742;-73
2021/07/23 16:43:25;;;;;;;11.40;8.45;;;;;;;26.00;46.89;100261.45;1769744;80;27479;-72
2021/07/23 16:45:55;;;;;;;11.97;9.03;;;;;;;25.93;47.11;100254.55;1755691;81;25719;-75
2021/07/23 16:48:24;;;;;;;13.65;9.05;;;;;;;25.85;47.19;100258.03;1773471;80;25388;-73
2021/07/23 16:50:50;;;;;;;10.08;8.80;;;;;;;25.78;47.41;100260.90;1755420;81;27002;-74
2021/07/23 16:53:16;;;;;;;13.50;9.10;;;;;;;25.67;47.69;100265.77;1775650;80;25696;-75
2021/07/23 16:55:42;;;;;;;17.17;9.35;;;;;;;25.63;48.02;100262.27;1775410;80;27609;-75